createdAt,value
2022-11-30T00:00:22.779Z,23.85
2022-11-30T00:00:54.746Z,21.60
2022-11-30T00:01:26.448Z,20.83
2022-11-30T00:01:58.082Z,23.85
2022-11-30T00:02:30.528Z,20.38
2022-11-30T00:03:02.714Z,20.92
2022-11-30T00:03:34.399Z,23.60
2022-11-30T00:04:06.037Z,22.27
2022-11-30T00:04:37.629Z,23.98
2022-11-30T00:05:10.136Z,23.77
2022-11-30T00:05:41.692Z,22.98
2022-11-30T00:06:16.097Z,20.13
2022-11-30T00:06:47.698Z,23.90
2022-11-30T00:07:23.360Z,23.67
2022-11-30T00:07:55.051Z,24.02
2022-11-30T00:08:29.263Z,23.67
2022-11-30T00:09:00.915Z,22.25
2022-11-30T00:09:32.480Z,20.98
2022-11-30T00:10:04.817Z,22.40
2022-11-30T00:10:38.831Z,22.38
2022-11-30T00:11:13.532Z,21.52
2022-11-30T00:11:45.147Z,21.77
2022-11-30T00:12:16.715Z,21.10
2022-11-30T00:12:48.723Z,19.42
2022-11-30T00:13:20.281Z,22.52
2022-11-30T00:13:51.954Z,23.00
2022-11-30T00:14:23.572Z,21.02
2022-11-30T00:14:55.115Z,22.60
2022-11-30T00:15:26.689Z,19.77
2022-11-30T00:16:01.578Z,21.77
2022-11-30T00:16:33.182Z,21.60
2022-11-30T00:17:04.934Z,20.58
2022-11-30T00:17:36.576Z,21.60
2022-11-30T00:18:08.137Z,23.00
2022-11-30T00:18:39.827Z,22.33
2022-11-30T00:19:11.358Z,21.08
2022-11-30T00:19:43.783Z,24.73
2022-11-30T00:20:16.322Z,21.35
2022-11-30T00:20:47.907Z,21.40
2022-11-30T00:21:19.983Z,21.17
2022-11-30T00:21:51.531Z,18.20
2022-11-30T00:22:23.100Z,21.80
2022-11-30T00:22:55.366Z,20.33
2022-11-30T00:23:27.391Z,19.90
2022-11-30T00:23:58.992Z,22.10
2022-11-30T00:24:30.589Z,19.85
2022-11-30T00:25:04.679Z,20.00
2022-11-30T00:25:37.223Z,20.40
2022-11-30T00:26:11.859Z,19.70
2022-11-30T00:26:43.451Z,18.30
2022-11-30T00:27:15.046Z,19.60
2022-11-30T00:27:46.616Z,19.83
2022-11-30T00:28:18.196Z,22.02
2022-11-30T00:28:49.909Z,19.95
2022-11-30T00:29:21.473Z,20.10
2022-11-30T00:29:53.073Z,19.38
2022-11-30T00:30:24.778Z,21.15
2022-11-30T00:31:05.565Z,19.42
2022-11-30T00:31:37.252Z,19.58
2022-11-30T00:32:08.816Z,18.73
2022-11-30T00:32:40.446Z,20.48
2022-11-30T00:33:12.050Z,18.23
2022-11-30T00:33:44.345Z,21.08
2022-11-30T00:34:15.934Z,19.50
2022-11-30T00:34:47.869Z,19.95
2022-11-30T00:35:19.707Z,19.95
2022-11-30T00:36:02.213Z,20.55
2022-11-30T00:36:33.915Z,19.90
2022-11-30T00:37:05.481Z,20.80
2022-11-30T00:37:37.150Z,22.08
2022-11-30T00:38:08.704Z,19.67
2022-11-30T00:38:40.523Z,21.20
2022-11-30T00:39:12.114Z,20.10
2022-11-30T00:39:43.683Z,21.98
2022-11-30T00:40:15.424Z,21.88
2022-11-30T00:40:46.975Z,21.73
2022-11-30T00:41:19.773Z,22.20
2022-11-30T00:41:51.341Z,22.33
2022-11-30T00:42:22.943Z,22.15
2022-11-30T00:42:54.555Z,22.48
2022-11-30T00:43:26.328Z,20.75
2022-11-30T00:43:57.882Z,20.63
2022-11-30T00:44:29.514Z,20.60
2022-11-30T00:45:01.112Z,21.15
2022-11-30T00:45:32.716Z,19.75
2022-11-30T00:46:04.926Z,21.50
2022-11-30T00:46:36.607Z,22.45
2022-11-30T00:47:08.296Z,19.95
2022-11-30T00:47:39.882Z,21.13
2022-11-30T00:48:11.511Z,22.63
2022-11-30T00:48:43.094Z,21.77
2022-11-30T00:49:14.681Z,21.42
2022-11-30T00:49:46.295Z,17.90
2022-11-30T00:50:17.897Z,20.52
2022-11-30T00:50:51.076Z,20.52
2022-11-30T00:51:22.683Z,21.70
2022-11-30T00:51:54.310Z,24.60
2022-11-30T00:52:25.867Z,22.02
2022-11-30T00:52:57.613Z,20.92
2022-11-30T00:53:29.192Z,20.60
2022-11-30T00:54:00.769Z,21.08
2022-11-30T00:54:32.498Z,20.90
2022-11-30T00:55:04.601Z,21.50
2022-11-30T00:55:36.405Z,21.30
2022-11-30T00:56:09.131Z,22.27
2022-11-30T00:56:40.712Z,21.15
2022-11-30T00:57:12.345Z,20.75
2022-11-30T00:57:43.996Z,20.13
2022-11-30T00:58:15.916Z,19.35
2022-11-30T00:58:47.606Z,20.17
2022-11-30T00:59:19.210Z,22.83
2022-11-30T00:59:51.078Z,20.55
2022-11-30T01:00:22.726Z,19.63
2022-11-30T01:00:54.390Z,21.50
2022-11-30T01:01:26.040Z,21.33
2022-11-30T01:01:59.076Z,20.25
2022-11-30T01:02:30.690Z,21.63
2022-11-30T01:03:03.043Z,18.90
2022-11-30T01:03:34.741Z,20.48
2022-11-30T01:04:06.628Z,19.65
2022-11-30T01:04:38.241Z,20.73
2022-11-30T01:05:09.839Z,20.60
2022-11-30T01:05:43.320Z,19.67
2022-11-30T01:06:15.058Z,23.45
2022-11-30T01:06:46.850Z,19.25
2022-11-30T01:07:18.475Z,21.27
2022-11-30T01:07:50.244Z,20.20
2022-11-30T01:08:21.868Z,20.50
2022-11-30T01:08:53.612Z,21.50
2022-11-30T01:09:25.215Z,21.65
2022-11-30T01:09:56.818Z,20.70
2022-11-30T01:10:28.510Z,18.80
2022-11-30T01:11:20.460Z,20.38
2022-11-30T01:11:52.046Z,22.35
2022-11-30T01:12:23.632Z,21.42
2022-11-30T01:12:55.506Z,22.73
2022-11-30T01:13:27.092Z,18.13
2022-11-30T01:14:00.705Z,18.80
2022-11-30T01:14:32.322Z,23.00
2022-11-30T01:15:04.425Z,18.27
2022-11-30T01:15:38.597Z,22.42
2022-11-30T01:16:17.063Z,21.60
2022-11-30T01:16:53.284Z,18.92
2022-11-30T01:17:27.566Z,16.73
2022-11-30T01:18:00.171Z,17.77
2022-11-30T01:18:32.285Z,18.67
2022-11-30T01:19:04.279Z,20.67
2022-11-30T01:19:35.864Z,19.75
2022-11-30T01:20:11.083Z,18.67
2022-11-30T01:20:43.577Z,19.33
2022-11-30T01:21:21.370Z,21.40
2022-11-30T01:21:53.006Z,19.13
2022-11-30T01:22:24.663Z,18.00
2022-11-30T01:22:56.602Z,18.42
2022-11-30T01:23:28.182Z,20.80
2022-11-30T01:23:59.820Z,20.08
2022-11-30T01:24:31.396Z,19.08
2022-11-30T01:25:03.734Z,19.90
2022-11-30T01:25:35.286Z,17.55
2022-11-30T01:26:07.914Z,17.70
2022-11-30T01:26:39.500Z,18.77
2022-11-30T01:27:11.643Z,17.80
2022-11-30T01:27:43.349Z,17.70
2022-11-30T01:28:14.909Z,17.35
2022-11-30T01:28:51.180Z,17.67
2022-11-30T01:29:22.766Z,18.77
2022-11-30T01:29:54.310Z,18.73
2022-11-30T01:30:25.903Z,18.00
2022-11-30T01:30:59.329Z,19.67
2022-11-30T01:31:30.945Z,17.63
2022-11-30T01:32:02.588Z,17.00
2022-11-30T01:32:34.194Z,17.92
2022-11-30T01:33:06.097Z,17.25
2022-11-30T01:33:37.728Z,17.63
2022-11-30T01:34:09.296Z,16.92
2022-11-30T01:34:40.881Z,18.13
2022-11-30T01:35:12.563Z,16.50
2022-11-30T01:35:44.158Z,18.00
2022-11-30T01:36:18.828Z,17.77
2022-11-30T01:36:50.382Z,17.67
2022-11-30T01:37:21.963Z,16.08
2022-11-30T01:37:53.987Z,15.40
2022-11-30T01:38:25.599Z,17.15
2022-11-30T01:38:58.105Z,18.38
2022-11-30T01:39:29.708Z,18.23
2022-11-30T01:40:01.552Z,17.63
2022-11-30T01:40:33.156Z,16.38
2022-11-30T01:41:06.241Z,16.58
2022-11-30T01:41:38.143Z,17.15
2022-11-30T01:42:18.298Z,16.52
2022-11-30T01:42:49.979Z,17.85
2022-11-30T01:43:21.597Z,17.08
2022-11-30T01:43:58.717Z,17.58
2022-11-30T01:44:30.255Z,15.93
2022-11-30T01:45:02.539Z,15.48
2022-11-30T01:45:34.164Z,18.48
2022-11-30T01:46:18.018Z,16.35
2022-11-30T01:47:00.792Z,15.68
2022-11-30T01:47:39.305Z,16.02
2022-11-30T01:48:10.931Z,16.17
2022-11-30T01:48:42.619Z,16.95
2022-11-30T01:49:18.655Z,17.33
2022-11-30T01:49:58.107Z,16.92
2022-11-30T01:50:34.581Z,17.95
2022-11-30T01:51:06.188Z,18.73
2022-11-30T01:51:54.647Z,17.45
2022-11-30T01:52:39.667Z,15.55
2022-11-30T01:53:12.536Z,16.85
2022-11-30T01:53:44.134Z,18.15
2022-11-30T01:54:20.183Z,17.70
2022-11-30T01:54:57.444Z,19.15
2022-11-30T01:55:37.792Z,18.02
2022-11-30T01:56:09.614Z,16.95
2022-11-30T01:56:48.470Z,15.00
2022-11-30T01:57:32.102Z,17.20
2022-11-30T01:58:09.701Z,17.40
2022-11-30T01:58:41.290Z,15.52
2022-11-30T01:59:13.758Z,14.68
2022-11-30T01:59:45.871Z,16.30
2022-11-30T02:01:05.117Z,15.52
2022-11-30T02:01:37.096Z,16.88
2022-11-30T02:02:08.969Z,16.70
2022-11-30T02:02:58.388Z,16.38
2022-11-30T02:03:41.877Z,16.85
2022-11-30T02:04:28.458Z,17.58
2022-11-30T02:05:00.491Z,17.23
2022-11-30T02:05:34.606Z,16.45
2022-11-30T02:06:06.595Z,17.67
2022-11-30T02:06:38.151Z,15.50
2022-11-30T02:07:09.841Z,14.43
2022-11-30T02:07:42.235Z,17.10
2022-11-30T02:08:14.255Z,15.88
2022-11-30T02:08:46.260Z,16.60
2022-11-30T02:09:20.178Z,17.00
2022-11-30T02:09:51.767Z,15.27
2022-11-30T02:10:28.266Z,16.80
2022-11-30T02:11:04.194Z,17.27
2022-11-30T02:11:35.783Z,14.50
2022-11-30T02:12:12.943Z,15.75
2022-11-30T02:13:10.306Z,16.23
2022-11-30T02:13:41.874Z,15.55
2022-11-30T02:14:39.806Z,14.48
2022-11-30T02:15:22.119Z,15.90
2022-11-30T02:16:19.690Z,17.55
2022-11-30T02:16:59.716Z,15.90
2022-11-30T02:17:48.555Z,15.52
2022-11-30T02:18:30.247Z,16.88
2022-11-30T02:19:13.851Z,13.48
2022-11-30T02:20:39.222Z,15.13
2022-11-30T02:21:33.558Z,16.05
2022-11-30T02:22:26.250Z,15.60
2022-11-30T02:23:18.130Z,16.48
2022-11-30T02:24:08.623Z,12.95
2022-11-30T02:24:51.414Z,15.13
2022-11-30T02:25:54.382Z,16.75
2022-11-30T02:26:37.694Z,16.98
2022-11-30T02:27:44.659Z,16.13
2022-11-30T02:28:34.090Z,14.57
2022-11-30T02:29:17.617Z,14.10
2022-11-30T02:29:56.655Z,16.48
2022-11-30T02:30:30.384Z,19.05
2022-11-30T02:31:06.500Z,20.27
2022-11-30T02:31:49.016Z,18.50
2022-11-30T02:32:29.178Z,17.90
2022-11-30T02:33:03.117Z,18.65
2022-11-30T02:33:35.867Z,19.50
2022-11-30T02:34:10.215Z,18.98
2022-11-30T02:34:43.458Z,20.38
2022-11-30T02:35:19.274Z,19.42
2022-11-30T02:35:55.247Z,20.35
2022-11-30T02:36:28.672Z,16.27
2022-11-30T02:37:01.575Z,15.90
2022-11-30T02:37:35.110Z,17.77
2022-11-30T02:38:06.820Z,24.08
2022-11-30T02:38:39.231Z,23.17
2022-11-30T02:39:12.168Z,18.92
2022-11-30T02:39:44.372Z,21.00
2022-11-30T02:40:18.507Z,16.42
2022-11-30T02:40:50.099Z,16.33
2022-11-30T02:41:21.683Z,16.13
2022-11-30T02:41:53.367Z,14.32
2022-11-30T02:42:24.974Z,15.35
2022-11-30T02:43:00.239Z,14.38
2022-11-30T02:43:33.213Z,15.13
2022-11-30T02:44:05.852Z,16.48
2022-11-30T02:44:37.657Z,16.58
2022-11-30T02:45:10.055Z,13.93
2022-11-30T02:46:12.264Z,13.95
2022-11-30T02:46:43.891Z,14.02
2022-11-30T02:47:23.790Z,13.13
2022-11-30T02:48:11.520Z,13.60
2022-11-30T02:48:49.470Z,15.07
2022-11-30T02:49:32.947Z,14.40
2022-11-30T02:50:25.766Z,13.80
2022-11-30T02:51:02.353Z,16.92
2022-11-30T02:51:37.257Z,14.63
2022-11-30T02:52:10.754Z,16.23
2022-11-30T02:52:42.479Z,16.85
2022-11-30T02:53:14.475Z,16.23
2022-11-30T02:53:47.363Z,15.70
2022-11-30T02:54:19.092Z,15.02
2022-11-30T02:54:50.989Z,13.43
2022-11-30T02:55:23.266Z,15.90
2022-11-30T02:55:54.891Z,15.75
2022-11-30T02:56:27.134Z,21.15
2022-11-30T02:56:58.776Z,21.58
2022-11-30T02:57:30.833Z,17.35
2022-11-30T02:58:02.418Z,15.05
2022-11-30T02:58:34.191Z,17.80
2022-11-30T02:59:05.838Z,20.23
2022-11-30T02:59:37.957Z,20.83
2022-11-30T03:00:11.563Z,20.83
2022-11-30T03:00:43.176Z,20.45
2022-11-30T03:01:14.802Z,24.42
2022-11-30T03:01:46.432Z,24.95
2022-11-30T03:02:18.084Z,20.13
2022-11-30T03:02:50.004Z,20.27
2022-11-30T03:03:22.186Z,18.80
2022-11-30T03:03:53.798Z,24.08
2022-11-30T03:04:25.354Z,22.08
2022-11-30T03:04:56.900Z,24.65
2022-11-30T03:05:28.555Z,19.77
2022-11-30T03:06:00.108Z,20.85
2022-11-30T03:06:31.730Z,21.80
2022-11-30T03:07:03.610Z,22.08
2022-11-30T03:07:35.541Z,17.63
2022-11-30T03:08:07.212Z,18.90
2022-11-30T03:08:38.806Z,18.98
2022-11-30T03:09:10.460Z,18.15
2022-11-30T03:09:42.053Z,14.77
2022-11-30T03:10:13.674Z,15.48
2022-11-30T03:10:45.243Z,13.77
2022-11-30T03:11:16.793Z,14.13
2022-11-30T03:11:48.382Z,12.32
2022-11-30T03:12:19.991Z,14.10
2022-11-30T03:12:51.626Z,13.80
2022-11-30T03:13:23.228Z,13.43
2022-11-30T03:13:54.828Z,14.68
2022-11-30T03:14:26.404Z,13.50
2022-11-30T03:14:57.971Z,13.40
2022-11-30T03:15:29.531Z,15.15
2022-11-30T03:16:12.065Z,12.73
2022-11-30T03:16:44.282Z,16.20
2022-11-30T03:17:15.939Z,13.68
2022-11-30T03:17:47.511Z,13.75
2022-11-30T03:18:19.123Z,15.43
2022-11-30T03:18:50.749Z,13.85
2022-11-30T03:19:22.379Z,13.63
2022-11-30T03:19:53.943Z,13.23
2022-11-30T03:20:25.662Z,13.05
2022-11-30T03:20:57.230Z,12.00
2022-11-30T03:21:29.212Z,15.05
2022-11-30T03:22:01.200Z,15.48
2022-11-30T03:22:32.756Z,15.70
2022-11-30T03:23:04.310Z,16.52
2022-11-30T03:23:35.998Z,13.75
2022-11-30T03:24:08.043Z,11.88
2022-11-30T03:24:39.614Z,13.35
2022-11-30T03:25:11.300Z,15.75
2022-11-30T03:25:43.370Z,17.35
2022-11-30T03:26:15.011Z,15.43
2022-11-30T03:26:46.583Z,15.43
2022-11-30T03:27:18.458Z,17.92
2022-11-30T03:27:50.066Z,18.45
2022-11-30T03:28:21.663Z,13.38
2022-11-30T03:28:53.266Z,14.63
2022-11-30T03:29:24.835Z,15.00
2022-11-30T03:29:56.444Z,15.00
2022-11-30T03:30:28.086Z,14.98
2022-11-30T03:31:00.382Z,13.70
2022-11-30T03:31:32.065Z,14.57
2022-11-30T03:32:03.796Z,14.00
2022-11-30T03:32:35.425Z,14.73
2022-11-30T03:33:07.075Z,12.57
2022-11-30T03:33:41.334Z,15.02
2022-11-30T03:34:12.923Z,16.40
2022-11-30T03:34:44.694Z,13.88
2022-11-30T03:35:16.632Z,14.98
2022-11-30T03:35:48.250Z,15.05
2022-11-30T03:36:19.840Z,12.00
2022-11-30T03:36:51.403Z,12.90
2022-11-30T03:37:22.963Z,14.02
2022-11-30T03:37:54.559Z,14.30
2022-11-30T03:38:26.224Z,12.85
2022-11-30T03:38:57.825Z,14.88
2022-11-30T03:39:29.478Z,13.13
2022-11-30T03:40:01.082Z,13.50
2022-11-30T03:40:32.679Z,13.10
2022-11-30T03:41:10.791Z,12.35
2022-11-30T03:41:42.374Z,14.82
2022-11-30T03:42:14.162Z,14.32
2022-11-30T03:42:45.741Z,12.48
2022-11-30T03:43:17.303Z,14.00
2022-11-30T03:43:48.938Z,12.77
2022-11-30T03:44:20.598Z,14.63
2022-11-30T03:44:52.224Z,13.50
2022-11-30T03:45:23.837Z,14.88
2022-11-30T03:45:55.766Z,14.32
2022-11-30T03:46:27.718Z,14.43
2022-11-30T03:46:59.405Z,15.43
2022-11-30T03:47:30.994Z,14.43
2022-11-30T03:48:02.613Z,13.93
2022-11-30T03:48:36.210Z,16.08
2022-11-30T03:49:07.891Z,16.30
2022-11-30T03:49:39.451Z,19.80
2022-11-30T03:50:11.315Z,13.90
2022-11-30T03:50:49.580Z,13.40
2022-11-30T03:51:21.400Z,12.35
2022-11-30T03:51:53.045Z,13.80
2022-11-30T03:52:24.734Z,14.27
2022-11-30T03:52:56.338Z,11.77
2022-11-30T03:53:28.212Z,14.05
2022-11-30T03:53:59.817Z,12.80
2022-11-30T03:54:31.411Z,13.93
2022-11-30T03:55:03.075Z,15.35
2022-11-30T03:55:35.622Z,14.38
2022-11-30T03:56:09.914Z,16.48
2022-11-30T03:56:41.502Z,17.23
2022-11-30T03:57:13.099Z,16.23
2022-11-30T03:57:44.693Z,13.80
2022-11-30T03:58:16.298Z,15.77
2022-11-30T03:58:47.859Z,15.88
2022-11-30T03:59:19.442Z,17.25
2022-11-30T03:59:51.047Z,19.80
2022-11-30T04:00:22.604Z,22.25
2022-11-30T04:01:01.020Z,17.13
2022-11-30T04:01:33.098Z,14.00
2022-11-30T04:02:04.796Z,16.13
2022-11-30T04:02:41.504Z,16.45
2022-11-30T04:03:16.459Z,13.20
2022-11-30T04:03:48.688Z,13.38
2022-11-30T04:04:20.248Z,14.20
2022-11-30T04:04:51.820Z,13.50
2022-11-30T04:05:23.479Z,15.52
2022-11-30T04:05:55.515Z,15.50
2022-11-30T04:06:27.177Z,16.67
2022-11-30T04:06:58.729Z,13.68
2022-11-30T04:07:30.377Z,15.60
2022-11-30T04:08:01.979Z,13.10
2022-11-30T04:08:33.975Z,14.18
2022-11-30T04:09:05.538Z,12.82
2022-11-30T04:09:37.170Z,13.65
2022-11-30T04:10:09.533Z,15.85
2022-11-30T04:10:41.090Z,16.33
2022-11-30T04:11:13.607Z,17.55
2022-11-30T04:11:45.239Z,19.50
2022-11-30T04:12:16.847Z,16.13
2022-11-30T04:12:48.445Z,19.25
2022-11-30T04:13:21.587Z,18.50
2022-11-30T04:13:53.186Z,20.42
2022-11-30T04:14:24.905Z,18.58
2022-11-30T04:14:56.539Z,17.65
2022-11-30T04:15:28.199Z,17.85
2022-11-30T04:16:00.127Z,21.20
2022-11-30T04:16:31.843Z,19.33
2022-11-30T04:17:03.480Z,20.88
2022-11-30T04:17:35.048Z,21.35
2022-11-30T04:18:06.632Z,19.45
2022-11-30T04:18:38.877Z,18.67
2022-11-30T04:19:10.471Z,17.88
2022-11-30T04:19:42.270Z,18.52
2022-11-30T04:20:13.983Z,17.40
2022-11-30T04:20:45.777Z,15.38
2022-11-30T04:21:18.228Z,19.25
2022-11-30T04:21:51.470Z,16.92
2022-11-30T04:22:23.143Z,18.60
2022-11-30T04:22:59.891Z,13.38
2022-11-30T04:23:34.205Z,18.45
2022-11-30T04:24:06.326Z,16.23
2022-11-30T04:24:37.924Z,16.75
2022-11-30T04:25:09.709Z,19.92
2022-11-30T04:25:42.153Z,16.73
2022-11-30T04:26:16.043Z,16.55
2022-11-30T04:26:47.663Z,16.02
2022-11-30T04:27:19.303Z,15.45
2022-11-30T04:27:50.908Z,13.07
2022-11-30T04:28:22.507Z,16.08
2022-11-30T04:28:54.086Z,12.75
2022-11-30T04:29:25.670Z,14.60
2022-11-30T04:29:57.275Z,14.20
2022-11-30T04:30:29.139Z,13.65
2022-11-30T04:31:01.135Z,13.48
2022-11-30T04:31:32.849Z,13.43
2022-11-30T04:32:04.590Z,13.52
2022-11-30T04:32:36.146Z,13.27
2022-11-30T04:33:07.856Z,13.18
2022-11-30T04:33:39.870Z,13.80
2022-11-30T04:34:11.491Z,12.45
2022-11-30T04:34:43.035Z,15.80
2022-11-30T04:35:14.746Z,17.52
2022-11-30T04:35:50.065Z,18.23
2022-11-30T04:36:21.883Z,16.50
2022-11-30T04:36:58.764Z,19.83
2022-11-30T04:37:31.747Z,18.75
2022-11-30T04:38:03.384Z,16.60
2022-11-30T04:38:36.598Z,13.27
2022-11-30T04:39:08.147Z,15.13
2022-11-30T04:39:39.734Z,12.82
2022-11-30T04:40:11.822Z,12.77
2022-11-30T04:40:43.931Z,14.77
2022-11-30T04:41:15.557Z,12.18
2022-11-30T04:41:47.139Z,19.35
2022-11-30T04:42:18.797Z,20.60
2022-11-30T04:42:50.411Z,24.65
2022-11-30T04:43:22.362Z,24.27
2022-11-30T04:43:53.966Z,21.85
2022-11-30T04:44:25.632Z,20.67
2022-11-30T04:44:57.301Z,20.80
2022-11-30T04:45:32.549Z,16.58
2022-11-30T04:46:07.195Z,18.70
2022-11-30T04:46:38.972Z,16.25
2022-11-30T04:47:10.574Z,16.70
2022-11-30T04:47:42.183Z,17.15
2022-11-30T04:48:14.591Z,18.25
2022-11-30T04:48:46.191Z,17.02
2022-11-30T04:49:17.839Z,14.05
2022-11-30T04:49:49.430Z,13.63
2022-11-30T04:50:21.014Z,13.32
2022-11-30T04:50:52.677Z,11.88
2022-11-30T04:51:24.289Z,13.20
2022-11-30T04:51:55.874Z,12.88
2022-11-30T04:52:27.495Z,13.48
2022-11-30T04:52:59.187Z,11.82
2022-11-30T04:53:30.758Z,11.55
2022-11-30T04:54:02.383Z,12.90
2022-11-30T04:54:33.964Z,14.00
2022-11-30T04:55:06.041Z,13.30
2022-11-30T04:55:39.252Z,12.40
2022-11-30T04:56:12.174Z,13.50
2022-11-30T04:56:43.753Z,11.75
2022-11-30T04:57:15.374Z,13.45
2022-11-30T04:57:47.427Z,13.52
2022-11-30T04:58:19.086Z,14.70
2022-11-30T04:58:50.651Z,13.85
2022-11-30T04:59:22.210Z,14.25
2022-11-30T04:59:53.827Z,13.75
2022-11-30T05:00:25.554Z,15.02
2022-11-30T05:00:57.118Z,15.90
2022-11-30T05:01:28.786Z,17.05
2022-11-30T05:02:00.538Z,15.73
2022-11-30T05:02:32.168Z,13.82
2022-11-30T05:03:03.783Z,15.77
2022-11-30T05:03:35.426Z,15.32
2022-11-30T05:04:07.073Z,13.93
2022-11-30T05:04:38.836Z,14.80
2022-11-30T05:05:11.354Z,14.18
2022-11-30T05:05:42.939Z,14.95
2022-11-30T05:06:14.599Z,16.23
2022-11-30T05:06:46.206Z,14.27
2022-11-30T05:07:17.883Z,16.77
2022-11-30T05:08:00.289Z,16.83
2022-11-30T05:08:31.966Z,16.38
2022-11-30T05:09:03.671Z,22.80
2022-11-30T05:09:35.259Z,21.20
2022-11-30T05:10:07.983Z,22.10
2022-11-30T05:10:39.600Z,20.17
2022-11-30T05:11:11.314Z,18.02
2022-11-30T05:11:43.513Z,21.50
2022-11-30T05:12:15.097Z,19.10
2022-11-30T05:12:46.695Z,19.48
2022-11-30T05:13:18.304Z,16.08
2022-11-30T05:13:49.865Z,19.38
2022-11-30T05:14:21.438Z,17.15
2022-11-30T05:14:53.009Z,16.23
2022-11-30T05:15:24.567Z,16.83
2022-11-30T05:15:56.332Z,13.52
2022-11-30T05:16:28.075Z,13.50
2022-11-30T05:16:59.767Z,11.70
2022-11-30T05:17:31.415Z,14.02
2022-11-30T05:18:03.376Z,12.50
2022-11-30T05:18:34.979Z,13.32
2022-11-30T05:19:06.581Z,15.00
2022-11-30T05:19:38.147Z,12.40
2022-11-30T05:20:10.246Z,14.05
2022-11-30T05:20:41.871Z,18.30
2022-11-30T05:21:13.946Z,12.93
2022-11-30T05:21:46.010Z,13.88
2022-11-30T05:22:17.698Z,14.50
2022-11-30T05:22:49.386Z,12.85
2022-11-30T05:23:21.476Z,16.10
2022-11-30T05:23:53.470Z,16.13
2022-11-30T05:24:25.066Z,15.02
2022-11-30T05:24:56.678Z,13.15
2022-11-30T05:25:28.332Z,11.45
2022-11-30T05:26:02.539Z,12.80
2022-11-30T05:26:35.794Z,13.90
2022-11-30T05:27:13.441Z,13.55
2022-11-30T05:27:46.020Z,12.60
2022-11-30T05:28:17.786Z,11.23
2022-11-30T05:28:49.351Z,11.60
2022-11-30T05:29:20.966Z,11.48
2022-11-30T05:29:52.539Z,12.02
2022-11-30T05:30:24.167Z,11.48
2022-11-30T05:30:55.778Z,13.95
2022-11-30T05:31:27.489Z,12.48
2022-11-30T05:31:59.078Z,12.73
2022-11-30T05:32:30.628Z,12.57
2022-11-30T05:33:02.194Z,13.80
2022-11-30T05:33:34.032Z,10.52
2022-11-30T05:34:05.670Z,11.48
2022-11-30T05:34:49.683Z,11.65
2022-11-30T05:35:22.488Z,12.02
2022-11-30T05:35:54.044Z,10.95
2022-11-30T05:36:25.839Z,12.02
2022-11-30T05:36:57.444Z,11.57
2022-11-30T05:37:29.139Z,12.15
2022-11-30T05:38:00.839Z,11.50
2022-11-30T05:38:32.450Z,13.48
2022-11-30T05:39:04.502Z,11.55
2022-11-30T05:39:36.079Z,13.13
2022-11-30T05:40:08.357Z,12.63
2022-11-30T05:40:39.926Z,11.23
2022-11-30T05:41:11.509Z,10.52
2022-11-30T05:41:43.208Z,13.90
2022-11-30T05:42:14.802Z,11.52
2022-11-30T05:42:46.392Z,12.38
2022-11-30T05:43:18.951Z,13.18
2022-11-30T05:43:50.529Z,11.88
2022-11-30T05:44:22.138Z,12.73
2022-11-30T05:44:53.731Z,10.82
2022-11-30T05:45:25.457Z,12.95
2022-11-30T05:46:01.462Z,11.27
2022-11-30T05:46:35.028Z,11.95
2022-11-30T05:47:09.041Z,10.80
2022-11-30T05:47:40.750Z,11.63
2022-11-30T05:48:12.385Z,15.02
2022-11-30T05:48:44.059Z,12.25
2022-11-30T05:49:15.656Z,13.50
2022-11-30T05:49:47.238Z,11.38
2022-11-30T05:50:19.244Z,12.60
2022-11-30T05:50:50.838Z,12.15
2022-11-30T05:51:22.510Z,13.60
2022-11-30T05:51:54.090Z,14.75
2022-11-30T05:52:25.694Z,15.18
2022-11-30T05:52:57.823Z,15.60
2022-11-30T05:53:29.462Z,18.35
2022-11-30T05:54:01.063Z,17.65
2022-11-30T05:54:34.278Z,19.90
2022-11-30T05:55:06.224Z,15.18
2022-11-30T05:55:38.298Z,16.55
2022-11-30T05:56:12.640Z,18.65
2022-11-30T05:56:44.213Z,17.58
2022-11-30T05:57:15.808Z,15.60
2022-11-30T05:57:47.414Z,12.48
2022-11-30T05:58:19.006Z,12.57
2022-11-30T05:58:50.684Z,14.50
2022-11-30T05:59:23.165Z,15.70
2022-11-30T05:59:54.812Z,13.82
2022-11-30T06:00:26.539Z,15.82
2022-11-30T06:00:58.154Z,16.88
2022-11-30T06:01:30.074Z,14.95
2022-11-30T06:02:01.761Z,16.08
2022-11-30T06:02:33.755Z,13.95
2022-11-30T06:03:05.560Z,12.30
2022-11-30T06:03:37.218Z,13.02
2022-11-30T06:04:09.142Z,13.63
2022-11-30T06:04:40.735Z,11.23
2022-11-30T06:05:13.667Z,11.15
2022-11-30T06:05:45.234Z,12.88
2022-11-30T06:06:17.105Z,13.07
2022-11-30T06:06:49.625Z,11.80
2022-11-30T06:07:21.334Z,11.90
2022-11-30T06:07:53.761Z,13.52
2022-11-30T06:08:25.941Z,10.35
2022-11-30T06:08:57.564Z,11.57
2022-11-30T06:09:29.426Z,12.18
2022-11-30T06:10:01.060Z,12.25
2022-11-30T06:10:32.658Z,11.55
2022-11-30T06:11:04.462Z,12.70
2022-11-30T06:11:36.102Z,10.77
2022-11-30T06:12:07.972Z,12.88
2022-11-30T06:12:39.822Z,13.15
2022-11-30T06:13:11.466Z,12.23
2022-11-30T06:13:43.278Z,12.63
2022-11-30T06:14:14.831Z,11.98
2022-11-30T06:14:46.626Z,12.80
2022-11-30T06:15:18.402Z,14.82
2022-11-30T06:15:50.007Z,13.57
2022-11-30T06:16:21.609Z,15.43
2022-11-30T06:16:53.257Z,11.13
2022-11-30T06:17:24.907Z,12.18
2022-11-30T06:17:56.678Z,12.55
2022-11-30T06:18:28.387Z,12.18
2022-11-30T06:18:59.979Z,11.70
2022-11-30T06:19:31.804Z,12.55
2022-11-30T06:20:05.183Z,15.15
2022-11-30T06:20:36.779Z,12.23
2022-11-30T06:21:10.998Z,12.82
2022-11-30T06:21:42.599Z,11.88
2022-11-30T06:22:14.188Z,12.27
2022-11-30T06:22:46.841Z,12.07
2022-11-30T06:23:18.470Z,11.15
2022-11-30T06:23:50.074Z,12.40
2022-11-30T06:24:21.677Z,11.65
2022-11-30T06:24:53.302Z,13.00
2022-11-30T06:25:25.705Z,13.30
2022-11-30T06:25:57.335Z,14.48
2022-11-30T06:26:28.937Z,14.30
2022-11-30T06:27:00.547Z,15.38
2022-11-30T06:27:32.574Z,14.30
2022-11-30T06:28:08.291Z,13.95
2022-11-30T06:28:43.125Z,13.52
2022-11-30T06:29:18.261Z,12.50
2022-11-30T06:29:49.857Z,12.15
2022-11-30T06:30:21.707Z,13.00
2022-11-30T06:30:53.319Z,12.43
2022-11-30T06:31:24.929Z,13.63
2022-11-30T06:31:56.626Z,13.63
2022-11-30T06:32:28.277Z,14.70
2022-11-30T06:32:59.840Z,16.92
2022-11-30T06:33:31.605Z,12.75
2022-11-30T06:34:03.267Z,13.65
2022-11-30T06:34:34.855Z,15.13
2022-11-30T06:35:06.750Z,14.63
2022-11-30T06:35:45.195Z,12.15
2022-11-30T06:36:22.887Z,13.60
2022-11-30T06:36:54.483Z,13.05
2022-11-30T06:37:26.106Z,14.13
2022-11-30T06:37:57.743Z,13.13
2022-11-30T06:38:29.511Z,11.88
2022-11-30T06:39:01.168Z,13.10
2022-11-30T06:40:04.150Z,13.25
2022-11-30T06:40:24.451Z,12.88
2022-11-30T06:41:03.862Z,12.52
2022-11-30T06:41:35.479Z,10.25
2022-11-30T06:42:07.053Z,10.43
2022-11-30T06:42:39.696Z,13.07
2022-11-30T06:43:11.367Z,13.18
2022-11-30T06:43:43.094Z,14.32
2022-11-30T06:44:14.688Z,12.50
2022-11-30T06:44:46.544Z,13.70
2022-11-30T06:45:18.438Z,12.73
2022-11-30T06:45:50.082Z,13.45
2022-11-30T06:46:22.307Z,11.80
2022-11-30T06:46:53.894Z,13.05
2022-11-30T06:47:27.087Z,12.23
2022-11-30T06:47:58.732Z,10.40
2022-11-30T06:48:30.304Z,11.82
2022-11-30T06:49:01.880Z,12.55
2022-11-30T06:49:33.443Z,13.05
2022-11-30T06:50:05.879Z,13.00
2022-11-30T06:50:37.755Z,11.15
2022-11-30T06:51:10.162Z,11.75
2022-11-30T06:51:42.460Z,11.68
2022-11-30T06:52:14.218Z,10.77
2022-11-30T06:52:45.772Z,12.70
2022-11-30T06:53:17.409Z,12.65
2022-11-30T06:53:49.035Z,12.60
2022-11-30T06:54:20.599Z,15.73
2022-11-30T06:54:52.239Z,12.27
2022-11-30T06:55:24.127Z,11.88
2022-11-30T06:55:55.726Z,12.57
2022-11-30T06:56:27.311Z,11.43
2022-11-30T06:56:58.859Z,11.98
2022-11-30T06:57:31.182Z,11.85
2022-11-30T06:58:09.369Z,11.20
2022-11-30T06:58:41.949Z,12.90
2022-11-30T06:59:13.603Z,12.65
2022-11-30T06:59:46.692Z,12.25
2022-11-30T07:00:19.290Z,10.88
2022-11-30T07:00:50.933Z,15.98
2022-11-30T07:01:22.612Z,11.85
2022-11-30T07:01:54.200Z,10.63
2022-11-30T07:02:25.785Z,12.50
2022-11-30T07:02:57.339Z,12.00
2022-11-30T07:03:28.949Z,11.73
2022-11-30T07:04:00.593Z,11.68
2022-11-30T07:04:33.323Z,11.82
2022-11-30T07:05:06.079Z,12.80
2022-11-30T07:05:45.873Z,13.43
2022-11-30T07:06:17.563Z,13.32
2022-11-30T07:06:49.113Z,13.38
2022-11-30T07:07:21.242Z,14.73